Time;durP1;ratioP1;P1;durP2;ratioP2;P2;SDS_P1;SDS_P2;PMS_P1;PMS_P2;Temp;Humidity;BMP_temperature;BMP_pressure;BME280_temperature;BME280_humidity;BME280_pressure;Samples;Min_cycle;Max_cycle;Signal;HPM_P1;HPM_P2
2024/02/14 00:00:13;;;;;;;;;;;;;;;11.55;94.11;101244.16;4967913;28;20061;-61
2024/02/14 00:02:49;;;;;;;10.43;3.95;;;;;;;11.63;94.49;101238.75;5003505;28;19930;-60
2024/02/14 00:05:17;;;;;;;8.20;3.85;;;;;;;11.81;94.21;101248.06;4990744;28;20065;-59
2024/02/14 00:07:45;;;;;;;7.45;4.07;;;;;;;11.80;94.37;101250.00;4968129;28;20050;-60
2024/02/14 00:10:12;;;;;;;9.57;3.95;;;;;;;11.67;94.06;101259.13;5005541;28;20058;-61
2024/02/14 00:12:39;;;;;;;11.02;4.00;;;;;;;11.68;94.72;101262.69;4988119;28;20061;-60
2024/02/14 00:15:07;;;;;;;11.05;4.38;;;;;;;11.73;94.56;101263.41;5004318;28;20536;-59
2024/02/14 00:17:35;;;;;;;11.77;4.28;;;;;;;11.92;93.51;101263.28;4973733;28;20053;-60
2024/02/14 00:20:03;;;;;;;9.20;4.22;;;;;;;11.90;93.44;101248.97;5003626;28;20061;-59
2024/02/14 00:22:31;;;;;;;9.98;4.22;;;;;;;11.80;93.70;101249.19;5005060;28;20053;-59
2024/02/14 00:24:59;;;;;;;8.27;4.07;;;;;;;11.78;94.23;101256.97;5003457;28;20544;-59
2024/02/14 00:27:27;;;;;;;6.93;4.20;;;;;;;11.76;94.75;101271.06;5019798;28;20065;-59
2024/02/14 00:29:54;;;;;;;8.98;4.78;;;;;;;11.94;94.35;101272.09;4965745;28;20054;-60
2024/02/14 00:32:22;;;;;;;8.55;4.40;;;;;;;11.63;95.40;101271.84;4981416;28;20516;-60
2024/02/14 00:34:49;;;;;;;10.77;4.28;;;;;;;11.91;95.74;101275.44;5003891;28;20072;-61
2024/02/14 00:37:19;;;;;;;11.23;4.70;;;;;;;11.89;95.07;101281.28;5005950;28;20057;-60
2024/02/14 00:39:48;;;;;;;12.25;4.65;;;;;;;12.03;95.33;101287.59;5003522;28;20058;-59
2024/02/14 00:42:16;;;;;;;9.63;4.70;;;;;;;12.03;94.59;101286.81;5004060;28;20053;-60
2024/02/14 00:44:43;;;;;;;10.90;4.75;;;;;;;11.74;96.40;101284.34;5015955;28;20053;-59
2024/02/14 00:47:11;;;;;;;10.07;4.95;;;;;;;11.87;96.36;101285.47;5023317;28;20511;-61
2024/02/14 00:49:39;;;;;;;11.18;4.97;;;;;;;11.81;96.61;101278.41;5014646;28;20073;-60
2024/02/14 00:52:06;;;;;;;8.85;4.72;;;;;;;11.86;96.97;101295.69;5014758;28;20057;-60
2024/02/14 00:54:34;;;;;;;10.50;4.93;;;;;;;11.90;96.82;101288.44;5014461;28;20057;-61
2024/02/14 00:57:02;;;;;;;9.93;4.95;;;;;;;11.80;97.18;101290.59;5000966;28;20046;-59
2024/02/14 00:59:29;;;;;;;9.98;5.05;;;;;;;11.93;97.99;101290.59;5010131;28;20054;-59
2024/02/14 01:01:57;;;;;;;11.98;4.53;;;;;;;11.71;98.39;101289.69;5006398;28;20054;-60
2024/02/14 01:04:24;;;;;;;11.48;5.53;;;;;;;11.77;98.90;101286.50;5005903;28;20053;-59
2024/02/14 01:06:51;;;;;;;9.38;4.65;;;;;;;11.96;97.88;101278.91;5005902;28;20061;-60
2024/02/14 01:09:19;;;;;;;12.48;5.60;;;;;;;11.91;97.72;101279.03;5006957;28;20072;-58
2024/02/14 01:11:48;;;;;;;11.93;5.78;;;;;;;11.81;98.74;101281.19;5003299;28;20061;-57
2024/02/14 01:14:16;;;;;;;11.07;5.38;;;;;;;11.62;99.34;101277.69;5011048;28;20049;-59
2024/02/14 01:16:43;;;;;;;10.55;5.47;;;;;;;11.80;99.42;101290.59;4993622;28;20053;-58
2024/02/14 01:19:11;;;;;;;10.27;5.20;;;;;;;11.78;99.61;101290.09;5004820;28;20049;-60
2024/02/14 01:21:39;;;;;;;10.23;5.43;;;;;;;11.82;100.00;101280.88;5010549;28;20042;-60
2024/02/14 01:24:08;;;;;;;11.77;5.50;;;;;;;11.74;100.00;101278.84;5012725;28;20602;-59
2024/02/14 01:26:36;;;;;;;9.27;5.30;;;;;;;11.72;99.88;101283.03;5009462;28;20061;-57
2024/02/14 01:29:05;;;;;;;10.15;5.78;;;;;;;11.75;100.00;101296.22;5004757;28;20050;-61
2024/02/14 01:31:34;;;;;;;15.25;6.00;;;;;;;11.90;99.92;101293.97;5015841;28;20480;-60
2024/02/14 01:34:02;;;;;;;10.93;5.93;;;;;;;11.94;99.03;101292.19;5011424;28;20046;-60
2024/02/14 01:36:30;;;;;;;15.27;5.80;;;;;;;11.93;99.41;101298.03;5006129;28;20058;-61
2024/02/14 01:38:57;;;;;;;11.45;6.43;;;;;;;11.93;98.80;101298.88;5012330;28;20042;-60
2024/02/14 01:41:24;;;;;;;8.88;5.47;;;;;;;12.02;98.66;101307.22;4999654;28;20061;-59
2024/02/14 01:43:52;;;;;;;9.60;6.18;;;;;;;11.87;98.70;101310.31;5008450;28;20053;-59
2024/02/14 01:46:19;;;;;;;11.77;5.97;;;;;;;11.90;98.85;101309.69;4992839;28;20058;-60
2024/02/14 01:48:47;;;;;;;14.32;6.65;;;;;;;11.86;99.00;101300.38;4998186;28;20065;-62
2024/02/14 01:51:17;;;;;;;11.63;6.53;;;;;;;12.00;99.13;101293.75;4993856;28;20045;-59
2024/02/14 01:53:45;;;;;;;12.07;6.30;;;;;;;12.12;98.15;101304.25;5019149;28;20057;-61
2024/02/14 01:56:12;;;;;;;12.52;5.93;;;;;;;12.10;97.91;101323.09;5016850;28;20836;-60
2024/02/14 01:58:40;;;;;;;13.07;6.20;;;;;;;12.00;98.48;101320.53;5018248;28;20041;-60
2024/02/14 02:01:09;;;;;;;11.18;6.55;;;;;;;11.92;98.98;101324.03;5021509;28;20053;-60
2024/02/14 02:03:37;;;;;;;12.23;6.30;;;;;;;11.89;99.12;101324.66;4990870;28;20054;-59
2024/02/14 02:06:07;;;;;;;18.08;7.38;;;;;;;11.77;100.00;101327.09;5019527;28;20061;-59
2024/02/14 02:08:35;;;;;;;10.57;6.10;;;;;;;11.92;100.00;101319.31;5005847;28;20054;-59
2024/02/14 02:11:03;;;;;;;15.70;6.63;;;;;;;11.94;100.00;101319.81;5003823;28;20632;-61
2024/02/14 02:13:30;;;;;;;13.77;7.30;;;;;;;11.99;100.00;101305.94;5004467;28;20056;-61
2024/02/14 02:15:57;;;;;;;10.70;6.43;;;;;;;11.92;100.00;101312.97;5020054;28;20061;-60
2024/02/14 02:18:25;;;;;;;14.45;6.55;;;;;;;11.89;100.00;101314.41;5013986;28;20060;-60
2024/02/14 02:20:53;;;;;;;12.40;6.30;;;;;;;11.98;100.00;101315.31;5013939;28;20050;-60
2024/02/14 02:23:21;;;;;;;13.55;6.78;;;;;;;11.89;100.00;101314.41;5007232;28;20525;-61
2024/02/14 02:25:50;;;;;;;11.38;6.03;;;;;;;11.92;100.00;101313.81;4997712;28;20053;-60
2024/02/14 02:28:17;;;;;;;11.80;6.57;;;;;;;11.90;100.00;101317.97;5005521;28;20049;-60
2024/02/14 02:30:46;;;;;;;11.23;6.38;;;;;;;11.79;100.00;101322.06;4996909;28;20046;-59
2024/02/14 02:33:13;;;;;;;11.75;6.18;;;;;;;11.98;100.00;101317.25;5000778;28;20217;-59
2024/02/14 02:35:42;;;;;;;10.65;6.15;;;;;;;11.97;100.00;101316.47;5013244;28;20180;-59
2024/02/14 02:38:09;;;;;;;8.93;6.00;;;;;;;12.06;100.00;101316.53;5003017;28;20092;-59
2024/02/14 02:40:36;;;;;;;10.50;5.90;;;;;;;11.97;100.00;101310.09;5008112;28;20038;-59
2024/02/14 02:43:04;;;;;;;11.48;5.95;;;;;;;12.00;100.00;101315.84;5019066;28;20061;-61
2024/02/14 02:45:31;;;;;;;10.98;5.72;;;;;;;11.93;100.00;101320.94;5002200;28;20053;-60
2024/02/14 02:48:00;;;;;;;13.55;6.60;;;;;;;11.98;100.00;101328.28;5003645;28;20060;-61
2024/02/14 02:50:28;;;;;;;10.13;6.60;;;;;;;11.91;100.00;101322.38;5003820;28;20705;-60
2024/02/14 02:52:56;;;;;;;12.45;6.78;;;;;;;11.79;100.00;101320.13;5010666;28;20050;-58
2024/02/14 02:55:24;;;;;;;11.93;6.57;;;;;;;11.72;100.00;101318.91;5004693;28;20057;-60
2024/02/14 02:57:52;;;;;;;10.00;6.18;;;;;;;11.81;100.00;101317.88;5005171;28;20056;-61
2024/02/14 03:00:21;;;;;;;9.45;6.38;;;;;;;11.86;100.00;101317.78;5004774;28;21363;-58
2024/02/14 03:02:48;;;;;;;9.32;6.50;;;;;;;11.98;100.00;101306.22;5005211;28;20058;-61
2024/02/14 03:05:19;;;;;;;10.23;6.05;;;;;;;12.08;100.00;101311.53;5002505;28;20054;-60
2024/02/14 03:07:47;;;;;;;10.23;5.88;;;;;;;11.97;100.00;101321.16;5015727;28;20418;-61
2024/02/14 03:10:17;;;;;;;12.48;6.47;;;;;;;11.98;100.00;101329.13;5023520;28;20044;-57
2024/02/14 03:12:49;;;;;;;8.50;5.32;;;;;;;12.11;100.00;101313.66;5006948;28;20065;-61
2024/02/14 03:15:18;;;;;;;8.15;4.70;;;;;;;12.02;100.00;101319.09;5019741;28;20437;-61
2024/02/14 03:17:45;;;;;;;8.75;5.82;;;;;;;11.99;100.00;101311.44;5009310;28;20244;-61
2024/02/14 03:20:13;;;;;;;8.77;5.32;;;;;;;11.96;100.00;101314.81;5019678;28;20095;-60
2024/02/14 03:22:44;;;;;;;11.73;6.10;;;;;;;11.80;100.00;101320.97;5009360;28;20568;-61
2024/02/14 03:25:18;;;;;;;9.38;5.95;;;;;;;11.87;100.00;101326.88;5015835;28;20779;-62
2024/02/14 03:27:51;;;;;;;8.73;5.88;;;;;;;12.01;100.00;101317.44;4989660;28;20050;-60
2024/02/14 03:30:19;;;;;;;8.50;5.90;;;;;;;11.99;100.00;101314.22;5001428;28;20060;-61
2024/02/14 03:32:47;;;;;;;9.50;5.80;;;;;;;11.83;100.00;101312.88;5008691;28;20057;-60
2024/02/14 03:35:15;;;;;;;9.25;5.57;;;;;;;11.82;100.00;101321.47;5007864;28;20065;-60
2024/02/14 03:37:43;;;;;;;9.15;5.68;;;;;;;12.01;100.00;101322.19;5020126;28;20061;-61
2024/02/14 03:40:11;;;;;;;9.48;5.85;;;;;;;12.10;100.00;101318.38;5004075;28;20664;-60
2024/02/14 03:42:39;;;;;;;9.90;6.18;;;;;;;12.06;100.00;101313.78;5006532;28;20781;-60
2024/02/14 03:45:07;;;;;;;10.18;6.35;;;;;;;11.77;100.00;101313.31;5019895;28;20065;-60
2024/02/14 03:47:39;;;;;;;11.15;6.82;;;;;;;11.83;100.00;101309.28;5016340;28;20045;-59
2024/02/14 03:50:07;;;;;;;10.90;6.40;;;;;;;11.90;100.00;101321.56;5011757;28;20042;-61
2024/02/14 03:52:35;;;;;;;11.48;6.57;;;;;;;11.98;100.00;101317.25;5000673;28;20122;-60
2024/02/14 03:55:03;;;;;;;12.48;6.30;;;;;;;12.12;100.00;101307.00;5015962;28;20582;-62
2024/02/14 03:57:30;;;;;;;11.38;6.45;;;;;;;11.97;100.00;101302.66;5009326;28;20053;-62
2024/02/14 04:00:03;;;;;;;10.13;6.68;;;;;;;12.05;100.00;101301.09;4988111;28;20051;-61
2024/02/14 04:02:37;;;;;;;9.88;5.70;;;;;;;12.02;100.00;101308.06;5005170;28;20070;-62
2024/02/14 04:05:08;;;;;;;11.93;6.55;;;;;;;12.08;100.00;101314.31;4981772;28;20049;-61
2024/02/14 04:07:37;;;;;;;10.00;5.95;;;;;;;11.98;100.00;101309.78;5000318;28;20534;-61
2024/02/14 04:10:04;;;;;;;9.32;5.43;;;;;;;12.11;100.00;101314.50;5011671;28;20517;-62
2024/02/14 04:12:32;;;;;;;9.88;5.40;;;;;;;12.05;100.00;101312.97;5005367;28;20353;-62
2024/02/14 04:14:59;;;;;;;9.77;5.68;;;;;;;12.14;100.00;101313.03;5006398;28;20357;-61
2024/02/14 04:17:27;;;;;;;9.20;5.28;;;;;;;12.16;100.00;101322.66;5008316;28;20049;-60
2024/02/14 04:19:54;;;;;;;10.63;5.22;;;;;;;12.29;100.00;101318.25;5002425;28;20080;-62
2024/02/14 04:22:22;;;;;;;7.70;4.80;;;;;;;11.97;100.00;101315.63;5009500;28;20050;-62
2024/02/14 04:24:49;;;;;;;8.52;4.72;;;;;;;12.13;100.00;101316.94;5009288;28;20049;-61
2024/02/14 04:27:16;;;;;;;9.88;5.57;;;;;;;12.05;100.00;101314.88;5013367;28;20109;-61
2024/02/14 04:29:47;;;;;;;8.77;5.00;;;;;;;11.98;100.00;101312.56;4998232;28;20061;-61
2024/02/14 04:32:15;;;;;;;9.07;5.43;;;;;;;11.96;100.00;101316.75;5018324;28;20045;-60
2024/02/14 04:34:43;;;;;;;8.05;5.40;;;;;;;12.00;100.00;101320.53;5017558;28;20140;-61
2024/02/14 04:37:13;;;;;;;10.02;5.75;;;;;;;11.99;100.00;101327.19;5009126;28;20061;-60
2024/02/14 04:39:42;;;;;;;7.78;5.90;;;;;;;12.09;100.00;101327.78;5002579;28;20053;-61
2024/02/14 04:42:09;;;;;;;9.45;5.97;;;;;;;12.15;100.00;101325.75;5010648;28;20062;-61
2024/02/14 04:44:37;;;;;;;10.05;6.38;;;;;;;12.15;100.00;101328.50;5009703;28;20050;-60
2024/02/14 04:47:04;;;;;;;9.38;6.68;;;;;;;11.91;100.00;101322.38;4996819;28;20053;-60
2024/02/14 04:49:32;;;;;;;10.80;6.97;;;;;;;12.02;100.00;101323.81;5010140;28;20049;-61
2024/02/14 04:52:00;;;;;;;10.05;6.65;;;;;;;12.11;100.00;101311.75;5007120;28;20069;-58
2024/02/14 04:54:28;;;;;;;11.48;7.30;;;;;;;12.23;100.00;101309.25;5012365;28;20053;-61
2024/02/14 04:56:55;;;;;;;8.90;6.72;;;;;;;12.31;100.00;101314.03;4999120;28;20056;-60
2024/02/14 04:59:29;;;;;;;11.75;7.15;;;;;;;12.27;100.00;101317.75;5008981;28;20049;-59
2024/02/14 05:01:56;;;;;;;10.80;7.60;;;;;;;12.27;100.00;101313.00;5008533;28;20045;-58
2024/02/14 05:04:24;;;;;;;11.13;7.32;;;;;;;12.15;100.00;101309.19;5008014;28;20658;-60
2024/02/14 05:06:52;;;;;;;10.93;7.45;;;;;;;12.20;100.00;101309.06;5008924;28;20712;-60
2024/02/14 05:09:25;;;;;;;10.32;7.32;;;;;;;12.15;100.00;101309.19;5001619;28;20061;-59
2024/02/14 05:11:52;;;;;;;11.70;8.07;;;;;;;12.04;100.00;101308.56;5008998;28;20050;-61
2024/02/14 05:14:19;;;;;;;15.93;8.77;;;;;;;12.13;100.00;101314.97;5009419;28;20062;-59
2024/02/14 05:16:47;;;;;;;13.48;8.27;;;;;;;12.23;100.00;101314.78;5012498;28;20058;-60
2024/02/14 05:19:14;;;;;;;14.85;9.00;;;;;;;12.16;100.00;101319.09;5008586;28;20053;-61
2024/02/14 05:21:41;;;;;;;11.85;7.97;;;;;;;12.05;100.00;101332.28;5004920;28;20050;-60
2024/02/14 05:24:09;;;;;;;11.77;8.13;;;;;;;12.14;100.00;101326.84;5013448;28;20595;-60
2024/02/14 05:26:36;;;;;;;13.25;8.82;;;;;;;12.22;100.00;101323.38;5008591;28;20058;-60
2024/02/14 05:29:04;;;;;;;12.93;8.18;;;;;;;12.18;100.00;101325.94;5008061;28;20056;-60
2024/02/14 05:31:45;;;;;;;11.75;7.63;;;;;;;12.25;100.00;101325.50;5014988;28;20050;-64
2024/02/14 05:34:13;;;;;;;12.40;7.68;;;;;;;12.21;100.00;101327.25;5008753;28;20049;-61
2024/02/14 05:36:42;;;;;;;10.32;7.45;;;;;;;12.32;100.00;101312.94;5006191;28;20041;-61
2024/02/14 05:39:09;;;;;;;11.13;6.65;;;;;;;12.26;100.00;101316.09;4997909;28;20050;-60
2024/02/14 05:41:37;;;;;;;10.65;7.03;;;;;;;12.34;100.00;101304.31;5007635;28;20053;-60
2024/02/14 05:44:04;;;;;;;10.55;7.43;;;;;;;12.22;100.00;101304.06;5008450;28;20076;-61
2024/02/14 05:46:31;;;;;;;10.90;6.93;;;;;;;12.15;100.00;101295.38;5008094;28;20046;-60
2024/02/14 05:48:59;;;;;;;11.25;7.45;;;;;;;12.05;100.00;101293.63;5004824;28;20049;-61
2024/02/14 05:51:26;;;;;;;10.20;6.72;;;;;;;12.24;100.00;101293.47;5008779;28;20453;-60
2024/02/14 05:53:53;;;;;;;10.80;6.28;;;;;;;12.36;100.00;101299.31;5008341;28;20060;-59
2024/02/14 05:56:21;;;;;;;12.55;7.25;;;;;;;12.35;100.00;101297.66;5008162;28;20049;-60
2024/02/14 05:58:48;;;;;;;8.52;6.15;;;;;;;12.38;100.00;101302.56;5007729;28;20068;-60
2024/02/14 06:01:16;;;;;;;12.35;7.25;;;;;;;12.28;100.00;101308.31;5002872;28;20364;-59
2024/02/14 06:03:43;;;;;;;9.32;6.88;;;;;;;12.20;100.00;101312.63;5007493;28;20054;-59
2024/02/14 06:06:11;;;;;;;8.90;6.57;;;;;;;12.20;100.00;101309.84;4995454;28;20046;-60
2024/02/14 06:08:38;;;;;;;10.50;7.30;;;;;;;12.33;100.00;101322.00;5006853;28;20058;-60
2024/02/14 06:11:06;;;;;;;10.20;7.38;;;;;;;12.32;100.00;101314.88;5001905;28;20482;-60
2024/02/14 06:13:35;;;;;;;9.35;6.70;;;;;;;12.23;100.00;101316.72;5004537;28;20610;-61
2024/02/14 06:16:03;;;;;;;10.50;6.90;;;;;;;12.14;100.00;101324.09;5009008;28;20519;-60
2024/02/14 06:18:30;;;;;;;10.68;6.70;;;;;;;12.17;100.00;101329.81;5000761;28;20065;-59
2024/02/14 06:20:57;;;;;;;10.02;6.80;;;;;;;12.24;100.00;101334.91;4996517;28;20042;-60
2024/02/14 06:23:25;;;;;;;11.40;7.07;;;;;;;12.45;100.00;101333.34;5005166;28;20054;-60
2024/02/14 06:25:53;;;;;;;11.27;7.35;;;;;;;12.40;100.00;101334.28;5005955;28;20050;-61
2024/02/14 06:28:20;;;;;;;11.30;7.60;;;;;;;12.42;100.00;101328.44;5004290;28;20050;-61
2024/02/14 06:30:47;;;;;;;12.52;7.78;;;;;;;12.47;100.00;101331.09;5000510;28;20065;-62
2024/02/14 06:33:15;;;;;;;10.35;7.75;;;;;;;12.56;100.00;101333.94;5003252;28;20053;-59
2024/02/14 06:35:44;;;;;;;11.63;7.55;;;;;;;12.52;100.00;101335.69;5006979;28;20057;-59
2024/02/14 06:38:12;;;;;;;10.05;7.50;;;;;;;12.52;100.00;101324.66;5003148;28;20054;-61
2024/02/14 06:40:40;;;;;;;11.85;8.05;;;;;;;12.30;100.00;101340.03;5011302;28;20053;-57
2024/02/14 06:43:07;;;;;;;11.63;7.85;;;;;;;12.38;100.00;101333.78;5005542;28;20061;-60
2024/02/14 06:45:34;;;;;;;11.75;8.48;;;;;;;12.52;100.00;101338.47;5001823;28;20053;-60
2024/02/14 06:48:02;;;;;;;14.52;8.77;;;;;;;12.44;100.00;101332.53;5006733;28;20053;-60
2024/02/14 06:50:29;;;;;;;11.40;8.27;;;;;;;12.49;100.00;101334.34;5016503;28;20056;-62
2024/02/14 06:53:00;;;;;;;12.85;8.98;;;;;;;12.52;100.00;101346.75;4998801;28;20062;-60
2024/02/14 06:55:28;;;;;;;13.20;9.02;;;;;;;12.48;100.00;101350.09;5005420;28;20059;-59
2024/02/14 06:57:56;;;;;;;14.23;8.88;;;;;;;12.72;100.00;101360.91;4989218;28;20065;-59
2024/02/14 07:00:24;;;;;;;13.18;8.80;;;;;;;12.66;100.00;101361.34;5006797;28;20057;-61
2024/02/14 07:02:51;;;;;;;13.45;8.40;;;;;;;12.63;100.00;101361.94;4984608;28;20049;-60
2024/02/14 07:05:18;;;;;;;12.15;8.52;;;;;;;12.58;100.00;101376.72;5005172;28;20472;-61
2024/02/14 07:07:46;;;;;;;12.13;8.63;;;;;;;12.68;100.00;101375.66;5006522;28;20050;-60
2024/02/14 07:10:13;;;;;;;10.13;7.97;;;;;;;12.56;100.00;101367.91;5006152;28;20061;-60
2024/02/14 07:12:40;;;;;;;13.98;8.93;;;;;;;12.63;100.00;101370.25;4988586;28;20058;-61
2024/02/14 07:15:08;;;;;;;12.68;9.15;;;;;;;12.52;100.00;101377.94;5003378;28;20061;-59
2024/02/14 07:17:36;;;;;;;11.55;8.50;;;;;;;12.61;100.00;101376.09;4995988;28;20054;-59
2024/02/14 07:20:04;;;;;;;12.45;7.88;;;;;;;12.55;100.00;101385.63;5005392;28;20133;-60
2024/02/14 07:22:31;;;;;;;11.45;7.82;;;;;;;12.60;100.00;101374.47;5006420;28;20053;-61
2024/02/14 07:24:59;;;;;;;12.45;8.30;;;;;;;12.65;100.00;101371.56;5005479;28;20057;-61
2024/02/14 07:27:26;;;;;;;11.32;7.80;;;;;;;12.78;100.00;101367.94;5004804;28;20053;-57
2024/02/14 07:29:54;;;;;;;14.13;8.65;;;;;;;12.84;100.00;101382.47;5004484;28;20068;-58
2024/02/14 07:32:21;;;;;;;12.57;7.97;;;;;;;12.77;100.00;101376.56;5006414;28;20050;-59
2024/02/14 07:34:49;;;;;;;11.02;8.15;;;;;;;12.80;100.00;101389.75;5005194;28;20080;-59
2024/02/14 07:37:19;;;;;;;11.13;7.90;;;;;;;12.83;100.00;101392.69;5001210;28;20046;-60
2024/02/14 07:39:47;;;;;;;16.52;8.27;;;;;;;13.00;100.00;101401.16;5005263;28;20054;-60
2024/02/14 07:42:15;;;;;;;11.40;7.55;;;;;;;12.94;100.00;101394.09;5005633;28;20045;-61
2024/02/14 07:44:42;;;;;;;15.20;9.10;;;;;;;12.96;100.00;101397.38;5007192;28;20520;-60
2024/02/14 07:47:10;;;;;;;13.30;9.07;;;;;;;12.99;100.00;101409.78;4997067;28;20552;-59
2024/02/14 07:49:38;;;;;;;14.02;7.85;;;;;;;13.07;100.00;101403.53;5003714;28;20092;-61
2024/02/14 07:52:06;;;;;;;15.57;8.02;;;;;;;13.02;100.00;101407.22;5005632;28;20489;-60
2024/02/14 07:54:36;;;;;;;;;;;;;;;13.06;100.00;101415.69;5013538;28;20716;-58
2024/02/14 07:57:03;;;;;;;12.43;8.15;;;;;;;13.01;100.00;101402.78;5011997;28;19932;-59
2024/02/14 07:59:31;;;;;;;12.57;8.15;;;;;;;13.12;100.00;101403.41;5011539;28;20052;-59
2024/02/14 08:01:58;;;;;;;14.23;7.38;;;;;;;13.08;100.00;101411.50;4992462;28;20053;-59
2024/02/14 08:04:25;;;;;;;13.30;7.93;;;;;;;13.14;100.00;101426.03;5002033;28;20057;-60
2024/02/14 08:06:53;;;;;;;12.15;7.32;;;;;;;13.09;100.00;101418.66;5005105;28;20058;-61
2024/02/14 08:09:20;;;;;;;12.57;7.97;;;;;;;13.19;100.00;101414.84;4982719;28;20069;-61
2024/02/14 08:11:48;;;;;;;17.77;8.40;;;;;;;13.30;100.00;101405.16;4969649;28;20576;-61
2024/02/14 08:14:15;;;;;;;14.10;7.45;;;;;;;13.12;100.00;101409.75;5004849;28;20556;-60
2024/02/14 08:16:42;;;;;;;14.32;7.78;;;;;;;13.27;100.00;101417.66;5007350;28;20495;-59
2024/02/14 08:19:09;;;;;;;13.57;6.93;;;;;;;13.10;100.00;101423.06;5008061;28;20057;-58
2024/02/14 08:21:37;;;;;;;12.48;6.70;;;;;;;13.36;100.00;101415.78;5021990;28;20053;-60
2024/02/14 08:24:05;;;;;;;13.07;6.95;;;;;;;13.34;100.00;101418.03;5007995;28;20101;-59
2024/02/14 08:26:32;;;;;;;14.10;7.10;;;;;;;13.28;100.00;101410.19;4993440;28;20058;-59
2024/02/14 08:29:00;;;;;;;14.48;6.68;;;;;;;13.31;100.00;101417.84;5006926;28;20060;-60
2024/02/14 08:31:27;;;;;;;13.15;7.03;;;;;;;13.40;100.00;101430.63;4979192;28;20057;-61
2024/02/14 08:33:55;;;;;;;14.13;6.32;;;;;;;13.39;100.00;101428.97;4999495;28;20054;-61
2024/02/14 08:36:23;;;;;;;15.38;6.00;;;;;;;13.34;100.00;101431.06;5005031;28;20062;-58
2024/02/14 08:38:50;;;;;;;13.82;5.65;;;;;;;13.50;100.00;101426.78;5011346;28;20052;-60
2024/02/14 08:41:20;;;;;;;15.52;6.05;;;;;;;13.52;100.00;101424.53;4988569;28;20051;-58
2024/02/14 08:43:48;;;;;;;13.18;5.68;;;;;;;13.55;100.00;101430.25;5004634;28;20061;-61
2024/02/14 08:46:17;;;;;;;14.25;5.30;;;;;;;13.48;100.00;101424.34;5005808;28;20077;-61
2024/02/14 08:48:48;;;;;;;14.88;5.22;;;;;;;13.61;100.00;101419.84;5009719;28;20080;-60
2024/02/14 08:51:16;;;;;;;16.08;5.00;;;;;;;13.73;100.00;101408.19;5012284;28;20064;-60
2024/02/14 08:53:44;;;;;;;12.73;4.60;;;;;;;13.79;100.00;101409.69;5008354;28;20046;-61
2024/02/14 08:56:13;;;;;;;15.77;5.45;;;;;;;13.98;100.00;101411.06;4999789;28;20058;-59
2024/02/14 08:58:41;;;;;;;12.00;4.45;;;;;;;13.95;100.00;101411.72;5005063;28;20061;-61
2024/02/14 09:01:10;;;;;;;10.32;3.80;;;;;;;13.93;100.00;101410.44;4998979;28;20515;-60
2024/02/14 09:03:48;;;;;;;10.00;3.85;;;;;;;13.95;100.00;101417.25;5000051;28;20037;-60
2024/02/14 09:06:20;;;;;;;12.73;3.53;;;;;;;13.94;100.00;101428.66;5021180;28;20049;-60
2024/02/14 09:08:50;;;;;;;11.40;4.50;;;;;;;13.98;100.00;101441.53;5017732;28;20068;-59
2024/02/14 09:11:18;;;;;;;11.15;4.10;;;;;;;13.88;100.00;101438.25;5010843;28;20049;-59
2024/02/14 09:13:47;;;;;;;11.95;4.10;;;;;;;13.97;100.00;101441.88;5005603;28;20053;-60
2024/02/14 09:16:18;;;;;;;14.70;3.70;;;;;;;13.93;100.00;101438.13;5009707;28;20425;-61
2024/02/14 09:18:46;;;;;;;16.55;3.70;;;;;;;14.01;100.00;101437.34;5013694;28;20050;-60
2024/02/14 09:21:15;;;;;;;11.55;3.28;;;;;;;14.27;100.00;101436.34;5008709;28;20054;-59
2024/02/14 09:23:48;;;;;;;9.10;3.10;;;;;;;13.99;100.00;101429.34;5010639;28;20065;-59
2024/02/14 09:26:18;;;;;;;;;;;;;;;13.99;100.00;101426.56;5014502;28;20042;-61
2024/02/14 09:28:45;;;;;;;9.02;3.20;;;;;;;13.95;100.00;101435.81;5004457;28;19925;-60
2024/02/14 09:31:17;;;;;;;11.85;3.03;;;;;;;14.02;100.00;101438.94;5022143;28;20057;-61
2024/02/14 09:33:47;;;;;;;7.80;2.70;;;;;;;14.10;100.00;101430.72;5015339;28;20660;-58
2024/02/14 09:36:16;;;;;;;12.05;2.90;;;;;;;14.05;100.00;101425.28;4978883;28;20516;-61
2024/02/14 09:38:44;;;;;;;6.68;2.63;;;;;;;14.14;100.00;101426.13;5016995;28;20064;-59
2024/02/14 09:41:16;;;;;;;9.63;2.40;;;;;;;13.99;100.00;101418.28;5004805;28;20045;-59
2024/02/14 09:43:44;;;;;;;11.95;2.75;;;;;;;14.18;100.00;101407.75;5006654;28;20848;-60
2024/02/14 09:46:13;;;;;;;7.85;2.85;;;;;;;14.19;100.00;101414.13;5021900;28;20053;-60
2024/02/14 09:48:44;;;;;;;8.43;2.58;;;;;;;14.37;100.00;101410.28;5011987;28;20050;-61
2024/02/14 09:51:12;;;;;;;15.48;3.05;;;;;;;14.53;100.00;101406.75;5009757;28;20054;-60
2024/02/14 09:53:40;;;;;;;10.65;3.00;;;;;;;14.47;100.00;101408.03;5003416;28;20066;-60
2024/02/14 09:56:12;;;;;;;12.80;3.13;;;;;;;14.55;100.00;101403.66;4993750;28;20175;-61
2024/02/14 09:58:40;;;;;;;10.20;3.03;;;;;;;14.74;100.00;101406.13;5014429;28;20061;-60
2024/02/14 10:01:08;;;;;;;7.68;2.55;;;;;;;14.83;99.96;101401.41;5014722;28;20056;-61
2024/02/14 10:03:36;;;;;;;10.93;2.97;;;;;;;14.87;99.50;101400.41;5017411;28;20113;-61
2024/02/14 10:06:04;;;;;;;8.52;2.95;;;;;;;14.81;98.87;101406.44;5001355;28;20034;-61
2024/02/14 10:08:31;;;;;;;13.80;3.40;;;;;;;14.77;98.86;101409.06;5007661;28;20061;-59
2024/02/14 10:10:59;;;;;;;11.63;3.67;;;;;;;14.95;98.13;101412.66;5007343;28;20041;-61
2024/02/14 10:13:28;;;;;;;10.40;3.92;;;;;;;15.21;97.20;101417.06;4992218;28;20060;-60
2024/02/14 10:15:56;;;;;;;10.95;3.58;;;;;;;14.91;96.99;101406.13;5003542;28;20061;-60
2024/02/14 10:18:23;;;;;;;10.95;3.38;;;;;;;14.90;98.62;101402.56;5003867;28;20041;-61
2024/02/14 10:20:57;;;;;;;12.38;3.78;;;;;;;15.18;96.81;101406.63;5011870;28;20046;-60
2024/02/14 10:23:27;;;;;;;15.40;3.90;;;;;;;15.18;96.29;101405.81;5006744;28;20042;-58
2024/02/14 10:25:56;;;;;;;16.85;4.90;;;;;;;15.19;96.37;101407.44;5001101;28;20060;-59
2024/02/14 10:28:24;;;;;;;12.82;5.18;;;;;;;15.18;96.35;101414.97;5007060;28;20050;-59
2024/02/14 10:31:05;;;;;;;13.27;4.78;;;;;;;15.12;96.67;101427.34;4997110;28;20050;-61
2024/02/14 10:33:32;;;;;;;10.20;4.40;;;;;;;14.91;96.84;101426.38;5005949;28;20050;-59
2024/02/14 10:36:02;;;;;;;11.73;4.28;;;;;;;15.13;96.50;101442.06;5012522;28;20732;-61
2024/02/14 10:38:34;;;;;;;13.18;4.72;;;;;;;14.85;96.62;101440.72;4997820;28;20058;-60
2024/02/14 10:41:02;;;;;;;16.27;5.60;;;;;;;14.72;97.87;101434.16;5011926;28;20504;-59
2024/02/14 10:43:31;;;;;;;17.02;5.43;;;;;;;14.97;98.11;101438.13;5007143;28;20058;-60
2024/02/14 10:46:06;;;;;;;13.10;5.53;;;;;;;14.94;97.45;101441.56;5016025;28;20057;-58
2024/02/14 10:48:35;;;;;;;12.55;5.80;;;;;;;14.97;97.11;101436.19;5011244;28;20054;-60
2024/02/14 10:51:05;;;;;;;13.65;5.60;;;;;;;15.07;96.85;101444.16;4986459;28;20057;-60
2024/02/14 10:53:36;;;;;;;16.05;6.50;;;;;;;14.91;97.55;101447.72;5009000;28;20041;-58
2024/02/14 10:56:05;;;;;;;18.00;5.90;;;;;;;15.07;98.35;101460.81;4999224;28;20136;-61
2024/02/14 10:58:33;;;;;;;15.30;6.30;;;;;;;14.93;97.62;101462.94;5009563;28;20514;-59
2024/02/14 11:01:00;;;;;;;20.45;6.18;;;;;;;15.01;98.28;101467.66;4988758;28;20099;-59
2024/02/14 11:03:30;;;;;;;19.60;7.15;;;;;;;15.06;97.63;101464.75;4988044;28;20050;-60
2024/02/14 11:06:03;;;;;;;15.80;6.47;;;;;;;14.89;98.74;101463.91;4978813;28;20312;-60
2024/02/14 11:08:32;;;;;;;17.65;6.55;;;;;;;14.93;99.55;101459.31;5000478;28;20049;-59
2024/02/14 11:11:00;;;;;;;14.52;6.07;;;;;;;14.82;99.36;101452.47;5013830;28;20058;-58
2024/02/14 11:13:31;;;;;;;13.45;5.95;;;;;;;14.91;100.00;101458.81;5009393;28;20051;-60
2024/02/14 11:16:04;;;;;;;16.48;6.72;;;;;;;14.95;99.46;101459.81;5005033;28;20046;-62
2024/02/14 11:18:35;;;;;;;13.13;5.38;;;;;;;15.04;98.22;101455.09;5003444;28;20446;-61